North Baltimore, Ohio
Current Conditions -  °F | °C
As of 4:53 PM on Sunday 23 Nov 2014 (Local Time) from KFDY Reporting Station
Overcast Overcast  
Wind Chill: 58°   Ceiling: 6000
Heat Index: 58°   Visibility: 10mi
Dew Point: 44°   Wind: 10mph
Humidity: 60%   Direction: 120°ESE
Pressure: 29.61"   Gusts: NA
Location:  41.18°N, 83.68°W
Report Text: KFDY 232153Z AUTO 12009KT 10SM OVC060 14/07 A2961 RMK AO2 SLP026 T01440067
Loading
Personal Weather Stations






























Interactive Weather Map New forecast layout! Learn more

10-Day Weather Forecast

Advertisements
Track Severe Weather on mobile